Decoded Metar for PAOU (NELSON LAGOON in AK, USA) (IATA:N/A) | Meteo·Mobile Aviation Weather
aviador You're here:

PAOU Decoded Metar

NELSON LAGOON in AK, USA
Report Time2019-05-19 22:56:00
UTC Time2019-05-19 23:03:41
Flight Rules ifr IFR
Wind330° at 14 kt
W.Decomp.*RWY 26: 8.0 kt HW 11.5 kt RCW
Visibility9999 m
Phenomena:N/A
Clouds:Overcast 008 Hf
Expected CloudBase > 1,200 ft AGL from Temp-Dew spread
Ceiling800 ft
Temp07°C (ISA -8)
Dew Point04°C (81% RH)
AAT0.6°C
QNH1005 hPa
Density Alt-564 ft
Elevation13 ft
Report Wrong Elevation
Raw Report
PAOU 192256Z AUTO 33014KT 10SM OVC008 07/04 A2968 RMK AO2 RAB37E47
SLP052 P0000 T00720044=

Extra information for PAOU:More info

Metar Taf Metar & Taf Last 4 Metars F.Rules Stats Wind Profile Meteogram Temp Stats Airport Information Weather charts Add Link Nearby VenuesMetar ALERT Operation Metar Decoded Social comments

AIRNAV info for PAOU